sensor_id;sensor_type;location;lat;lon;timestamp;pressure;altitude;pressure_sealevel;temperature;humidity
71805;BME280;59654;52.216;5.616;2023-03-04T00:00:19;102469.06;;;3.19;85.12
71805;BME280;59654;52.216;5.616;2023-03-04T00:00:50;102470.84;;;3.20;85.11
71805;BME280;59654;52.216;5.616;2023-03-04T00:01:21;102463.88;;;3.22;84.95
71805;BME280;59654;52.216;5.616;2023-03-04T00:01:52;102470.03;;;3.23;84.25
71805;BME280;59654;52.216;5.616;2023-03-04T00:02:23;102464.72;;;3.21;83.92
71805;BME280;59654;52.216;5.616;2023-03-04T00:02:54;102464.66;;;3.18;84.25
71805;BME280;59654;52.216;5.616;2023-03-04T00:03:25;102466.44;;;3.19;84.67
71805;BME280;59654;52.216;5.616;2023-03-04T00:03:56;102460.25;;;3.16;84.37
71805;BME280;59654;52.216;5.616;2023-03-04T00:04:26;102468.16;;;3.17;84.88
71805;BME280;59654;52.216;5.616;2023-03-04T00:04:57;102463.81;;;3.19;84.25
71805;BME280;59654;52.216;5.616;2023-03-04T00:05:28;102466.47;;;3.21;84.11
71805;BME280;59654;52.216;5.616;2023-03-04T00:06:00;102463.84;;;3.21;84.71
71805;BME280;59654;52.216;5.616;2023-03-04T00:06:31;102468.28;;;3.23;84.77
71805;BME280;59654;52.216;5.616;2023-03-04T00:07:02;102463.03;;;3.25;84.59
71805;BME280;59654;52.216;5.616;2023-03-04T00:07:33;102470.97;;;3.26;84.62
71805;BME280;59654;52.216;5.616;2023-03-04T00:08:04;102465.69;;;3.26;84.15
71805;BME280;59654;52.216;5.616;2023-03-04T00:08:35;102463.94;;;3.27;84.38
71805;BME280;59654;52.216;5.616;2023-03-04T00:09:06;102457.84;;;3.29;84.38
71805;BME280;59654;52.216;5.616;2023-03-04T00:09:36;102458.78;;;3.31;84.60
71805;BME280;59654;52.216;5.616;2023-03-04T00:10:08;102459.59;;;3.29;84.19
71805;BME280;59654;52.216;5.616;2023-03-04T00:10:39;102465.75;;;3.29;84.23
71805;BME280;59654;52.216;5.616;2023-03-04T00:11:10;102460.50;;;3.29;84.04
71805;BME280;59654;52.216;5.616;2023-03-04T00:11:41;102463.97;;;3.28;84.14
71805;BME280;59654;52.216;5.616;2023-03-04T00:12:12;102455.22;;;3.29;84.35
71805;BME280;59654;52.216;5.616;2023-03-04T00:12:43;102464.03;;;3.31;84.59
71805;BME280;59654;52.216;5.616;2023-03-04T00:13:14;102456.16;;;3.33;84.58
71805;BME280;59654;52.216;5.616;2023-03-04T00:13:46;102460.59;;;3.37;84.13
71805;BME280;59654;52.216;5.616;2023-03-04T00:14:16;102461.47;;;3.36;84.05
71805;BME280;59654;52.216;5.616;2023-03-04T00:14:47;102455.31;;;3.36;84.31
71805;BME280;59654;52.216;5.616;2023-03-04T00:15:18;102455.31;;;3.36;84.40
71805;BME280;59654;52.216;5.616;2023-03-04T00:15:50;102463.22;;;3.36;84.19
71805;BME280;59654;52.216;5.616;2023-03-04T00:16:22;102456.19;;;3.36;84.59
71805;BME280;59654;52.216;5.616;2023-03-04T00:16:56;102465.84;;;3.36;84.52
71805;BME280;59654;52.216;5.616;2023-03-04T00:17:27;102464.06;;;3.35;84.24
71805;BME280;59654;52.216;5.616;2023-03-04T00:17:59;102467.56;;;3.33;84.10
71805;BME280;59654;52.216;5.616;2023-03-04T00:18:30;102460.56;;;3.32;84.76
71805;BME280;59654;52.216;5.616;2023-03-04T00:19:01;102462.28;;;3.33;84.83
71805;BME280;59654;52.216;5.616;2023-03-04T00:19:31;102459.66;;;3.32;84.41
71805;BME280;59654;52.216;5.616;2023-03-04T00:20:04;102467.53;;;3.30;84.31
71805;BME280;59654;52.216;5.616;2023-03-04T00:20:36;102457.00;;;3.30;84.78
71805;BME280;59654;52.216;5.616;2023-03-04T00:21:07;102457.84;;;3.29;85.12
71805;BME280;59654;52.216;5.616;2023-03-04T00:21:38;102464.00;;;3.30;85.20
71805;BME280;59654;52.216;5.616;2023-03-04T00:22:08;102464.03;;;3.31;84.90
71805;BME280;59654;52.216;5.616;2023-03-04T00:22:39;102459.66;;;3.32;84.47
71805;BME280;59654;52.216;5.616;2023-03-04T00:23:10;102459.66;;;3.33;84.67
71805;BME280;59654;52.216;5.616;2023-03-04T00:23:41;102461.44;;;3.33;84.80
71805;BME280;59654;52.216;5.616;2023-03-04T00:24:13;102459.59;;;3.29;84.55
71805;BME280;59654;52.216;5.616;2023-03-04T00:24:44;102461.38;;;3.30;84.53
71805;BME280;59654;52.216;5.616;2023-03-04T00:25:14;102458.75;;;3.30;84.93
71805;BME280;59654;52.216;5.616;2023-03-04T00:25:46;102463.16;;;3.31;85.03
71805;BME280;59654;52.216;5.616;2023-03-04T00:26:16;102458.75;;;3.30;84.81
71805;BME280;59654;52.216;5.616;2023-03-04T00:26:47;102458.72;;;3.28;84.85
71805;BME280;59654;52.216;5.616;2023-03-04T00:27:18;102461.31;;;3.27;84.79
71805;BME280;59654;52.216;5.616;2023-03-04T00:27:49;102469.22;;;3.27;85.20
71805;BME280;59654;52.216;5.616;2023-03-04T00:28:20;102465.63;;;3.23;84.59
71805;BME280;59654;52.216;5.616;2023-03-04T00:28:51;102467.38;;;3.23;84.99
71805;BME280;59654;52.216;5.616;2023-03-04T00:29:22;102460.34;;;3.22;85.07
71805;BME280;59654;52.216;5.616;2023-03-04T00:29:53;102460.34;;;3.22;84.95
71805;BME280;59654;52.216;5.616;2023-03-04T00:30:24;102462.97;;;3.22;85.43
71805;BME280;59654;52.216;5.616;2023-03-04T00:30:55;102462.94;;;3.20;85.48
71805;BME280;59654;52.216;5.616;2023-03-04T00:31:26;102459.41;;;3.20;84.95
71805;BME280;59654;52.216;5.616;2023-03-04T00:31:57;102464.75;;;3.23;85.45
71805;BME280;59654;52.216;5.616;2023-03-04T00:32:28;102465.69;;;3.26;85.51
71805;BME280;59654;52.216;5.616;2023-03-04T00:32:59;102465.69;;;3.26;85.55
71805;BME280;59654;52.216;5.616;2023-03-04T00:33:29;102457.75;;;3.25;85.25
71805;BME280;59654;52.216;5.616;2023-03-04T00:34:01;102461.28;;;3.25;84.63
71805;BME280;59654;52.216;5.616;2023-03-04T00:34:32;102463.00;;;3.23;84.81
71805;BME280;59654;52.216;5.616;2023-03-04T00:35:05;102457.72;;;3.23;84.35
71805;BME280;59654;52.216;5.616;2023-03-04T00:35:36;102458.66;;;3.25;85.12
71805;BME280;59654;52.216;5.616;2023-03-04T00:36:07;102463.91;;;3.25;84.81
71805;BME280;59654;52.216;5.616;2023-03-04T00:36:38;102455.97;;;3.24;85.33
71805;BME280;59654;52.216;5.616;2023-03-04T00:37:09;102470.06;;;3.24;84.81
71805;BME280;59654;52.216;5.616;2023-03-04T00:37:40;102463.91;;;3.25;85.15
71805;BME280;59654;52.216;5.616;2023-03-04T00:38:11;102463.03;;;3.25;85.06
71805;BME280;59654;52.216;5.616;2023-03-04T00:38:42;102472.69;;;3.24;84.83
71805;BME280;59654;52.216;5.616;2023-03-04T00:39:13;102464.78;;;3.24;85.42
71805;BME280;59654;52.216;5.616;2023-03-04T00:39:44;102460.44;;;3.26;85.18
71805;BME280;59654;52.216;5.616;2023-03-04T00:40:16;102463.03;;;3.25;84.76
71805;BME280;59654;52.216;5.616;2023-03-04T00:40:47;102465.63;;;3.23;85.15
71805;BME280;59654;52.216;5.616;2023-03-04T00:41:18;102460.34;;;3.22;84.99
71805;BME280;59654;52.216;5.616;2023-03-04T00:41:48;102471.81;;;3.24;85.03
71805;BME280;59654;52.216;5.616;2023-03-04T00:42:19;102468.31;;;3.25;85.40
71805;BME280;59654;52.216;5.616;2023-03-04T00:42:50;102462.16;;;3.24;85.08
71805;BME280;59654;52.216;5.616;2023-03-04T00:43:21;102458.66;;;3.25;85.71
71805;BME280;59654;52.216;5.616;2023-03-04T00:43:52;102458.66;;;3.25;85.48
71805;BME280;59654;52.216;5.616;2023-03-04T00:44:23;102455.13;;;3.25;85.17
71805;BME280;59654;52.216;5.616;2023-03-04T00:44:54;102455.13;;;3.25;85.71
71805;BME280;59654;52.216;5.616;2023-03-04T00:45:25;102461.31;;;3.27;85.31
71805;BME280;59654;52.216;5.616;2023-03-04T00:45:56;102457.81;;;3.28;85.54
71805;BME280;59654;52.216;5.616;2023-03-04T00:46:27;102462.25;;;3.29;85.45
71805;BME280;59654;52.216;5.616;2023-03-04T00:46:58;102456.03;;;3.27;85.47
71805;BME280;59654;52.216;5.616;2023-03-04T00:47:29;102460.44;;;3.26;84.77
71805;BME280;59654;52.216;5.616;2023-03-04T00:48:00;102456.88;;;3.24;85.22
71805;BME280;59654;52.216;5.616;2023-03-04T00:48:31;102458.66;;;3.25;85.29
71805;BME280;59654;52.216;5.616;2023-03-04T00:49:02;102463.00;;;3.23;85.39
71805;BME280;59654;52.216;5.616;2023-03-04T00:49:33;102462.16;;;3.24;85.37
71805;BME280;59654;52.216;5.616;2023-03-04T00:50:04;102454.25;;;3.24;85.42
71805;BME280;59654;52.216;5.616;2023-03-04T00:50:35;102458.66;;;3.25;85.59
71805;BME280;59654;52.216;5.616;2023-03-04T00:51:06;102456.88;;;3.24;85.92
71805;BME280;59654;52.216;5.616;2023-03-04T00:51:37;102454.25;;;3.24;85.88
71805;BME280;59654;52.216;5.616;2023-03-04T00:52:08;102460.41;;;3.25;85.73
71805;BME280;59654;52.216;5.616;2023-03-04T00:52:40;102459.53;;;3.26;85.81
71805;BME280;59654;52.216;5.616;2023-03-04T00:53:11;102457.81;;;3.28;85.73
71805;BME280;59654;52.216;5.616;2023-03-04T00:53:42;102458.72;;;3.28;85.43
71805;BME280;59654;52.216;5.616;2023-03-04T00:54:13;102465.69;;;3.26;85.23
71805;BME280;59654;52.216;5.616;2023-03-04T00:54:44;102453.44;;;3.28;85.48
71805;BME280;59654;52.216;5.616;2023-03-04T00:55:15;102463.13;;;3.29;85.38
71805;BME280;59654;52.216;5.616;2023-03-04T00:55:46;102459.59;;;3.29;86.10
71805;BME280;59654;52.216;5.616;2023-03-04T00:56:17;102460.47;;;3.28;85.63
71805;BME280;59654;52.216;5.616;2023-03-04T00:56:48;102456.91;;;3.26;86.21
71805;BME280;59654;52.216;5.616;2023-03-04T00:57:19;102452.53;;;3.26;85.50
71805;BME280;59654;52.216;5.616;2023-03-04T00:57:51;102458.72;;;3.28;85.45
71805;BME280;59654;52.216;5.616;2023-03-04T00:58:21;102468.31;;;3.25;84.73
71805;BME280;59654;52.216;5.616;2023-03-04T00:58:52;102462.16;;;3.24;85.10
71805;BME280;59654;52.216;5.616;2023-03-04T00:59:23;102469.13;;;3.22;84.74
71805;BME280;59654;52.216;5.616;2023-03-04T00:59:54;102457.69;;;3.22;85.06
71805;BME280;59654;52.216;5.616;2023-03-04T01:00:25;102458.59;;;3.22;84.66
71805;BME280;59654;52.216;5.616;2023-03-04T01:00:56;102462.09;;;3.21;84.78
71805;BME280;59654;52.216;5.616;2023-03-04T01:01:28;102465.59;;;3.22;84.59
71805;BME280;59654;52.216;5.616;2023-03-04T01:01:59;102465.56;;;3.20;84.95
71805;BME280;59654;52.216;5.616;2023-03-04T01:02:30;102466.44;;;3.19;84.47
71805;BME280;59654;52.216;5.616;2023-03-04T01:03:01;102465.50;;;3.17;84.89
71805;BME280;59654;52.216;5.616;2023-03-04T01:03:32;102458.50;;;3.16;85.13
71805;BME280;59654;52.216;5.616;2023-03-04T01:04:03;102466.41;;;3.18;85.34
71805;BME280;59654;52.216;5.616;2023-03-04T01:04:34;102466.41;;;3.16;84.46
71805;BME280;59654;52.216;5.616;2023-03-04T01:05:06;102462.84;;;3.14;84.69
71805;BME280;59654;52.216;5.616;2023-03-04T01:05:38;102460.22;;;3.14;84.60
71805;BME280;59654;52.216;5.616;2023-03-04T01:06:09;102466.38;;;3.15;84.39
71805;BME280;59654;52.216;5.616;2023-03-04T01:06:42;102464.59;;;3.14;84.70
71805;BME280;59654;52.216;5.616;2023-03-04T01:07:13;102464.63;;;3.15;84.24
71805;BME280;59654;52.216;5.616;2023-03-04T01:07:44;102459.34;;;3.15;84.04
71805;BME280;59654;52.216;5.616;2023-03-04T01:08:14;102461.13;;;3.18;84.13
71805;BME280;59654;52.216;5.616;2023-03-04T01:08:45;102466.41;;;3.16;84.02
71805;BME280;59654;52.216;5.616;2023-03-04T01:09:17;102462.88;;;3.17;84.00
71805;BME280;59654;52.216;5.616;2023-03-04T01:09:48;102462.91;;;3.19;84.54
71805;BME280;59654;52.216;5.616;2023-03-04T01:10:19;102463.81;;;3.19;84.33
71805;BME280;59654;52.216;5.616;2023-03-04T01:10:50;102462.03;;;3.18;84.14
71805;BME280;59654;52.216;5.616;2023-03-04T01:11:22;102461.13;;;3.18;83.86
71805;BME280;59654;52.216;5.616;2023-03-04T01:11:52;102468.19;;;3.19;84.52
71805;BME280;59654;52.216;5.616;2023-03-04T01:12:23;102463.78;;;3.18;84.02
71805;BME280;59654;52.216;5.616;2023-03-04T01:12:54;102464.66;;;3.18;83.72
71805;BME280;59654;52.216;5.616;2023-03-04T01:13:25;102467.25;;;3.15;83.75
71805;BME280;59654;52.216;5.616;2023-03-04T01:13:56;102461.94;;;3.12;84.18
71805;BME280;59654;52.216;5.616;2023-03-04T01:14:27;102459.31;;;3.14;84.22
71805;BME280;59654;52.216;5.616;2023-03-04T01:14:58;102463.78;;;3.16;84.45
71805;BME280;59654;52.216;5.616;2023-03-04T01:15:29;102458.50;;;3.16;84.33
71805;BME280;59654;52.216;5.616;2023-03-04T01:16:00;102462.03;;;3.18;83.35
71805;BME280;59654;52.216;5.616;2023-03-04T01:16:33;102461.13;;;3.18;84.26
71805;BME280;59654;52.216;5.616;2023-03-04T01:17:04;102462.94;;;3.20;84.43
71805;BME280;59654;52.216;5.616;2023-03-04T01:17:35;102458.53;;;3.19;83.84
71805;BME280;59654;52.216;5.616;2023-03-04T01:18:06;102455.03;;;3.20;84.30
71805;BME280;59654;52.216;5.616;2023-03-04T01:18:37;102458.53;;;3.19;84.02
71805;BME280;59654;52.216;5.616;2023-03-04T01:19:08;102461.13;;;3.18;84.08
71805;BME280;59654;52.216;5.616;2023-03-04T01:19:40;102460.25;;;3.17;84.22
71805;BME280;59654;52.216;5.616;2023-03-04T01:20:11;102460.25;;;3.17;84.07
71805;BME280;59654;52.216;5.616;2023-03-04T01:20:42;102455.91;;;3.19;84.35
71805;BME280;59654;52.216;5.616;2023-03-04T01:21:13;102457.63;;;3.19;83.94
71805;BME280;59654;52.216;5.616;2023-03-04T01:21:44;102457.59;;;3.17;84.21
71805;BME280;59654;52.216;5.616;2023-03-04T01:22:15;102457.59;;;3.17;83.75
71805;BME280;59654;52.216;5.616;2023-03-04T01:22:48;102459.38;;;3.18;84.25
71805;BME280;59654;52.216;5.616;2023-03-04T01:23:19;102450.59;;;3.18;83.55
71805;BME280;59654;52.216;5.616;2023-03-04T01:23:50;102453.22;;;3.16;84.30
71805;BME280;59654;52.216;5.616;2023-03-04T01:24:21;102451.50;;;3.17;84.58
71805;BME280;59654;52.216;5.616;2023-03-04T01:24:52;102458.50;;;3.18;84.32
71805;BME280;59654;52.216;5.616;2023-03-04T01:25:23;102454.97;;;3.17;83.94
71805;BME280;59654;52.216;5.616;2023-03-04T01:25:54;102451.47;;;3.18;84.15
71805;BME280;59654;52.216;5.616;2023-03-04T01:26:25;102444.50;;;3.20;84.04
71805;BME280;59654;52.216;5.616;2023-03-04T01:26:57;102451.53;;;3.21;84.21
71805;BME280;59654;52.216;5.616;2023-03-04T01:27:27;102453.28;;;3.21;84.39
71805;BME280;59654;52.216;5.616;2023-03-04T01:27:58;102452.41;;;3.20;84.58
71805;BME280;59654;52.216;5.616;2023-03-04T01:28:29;102453.25;;;3.19;84.81
71805;BME280;59654;52.216;5.616;2023-03-04T01:29:02;102448.88;;;3.20;84.80
71805;BME280;59654;52.216;5.616;2023-03-04T01:29:33;102451.50;;;3.20;84.78
71805;BME280;59654;52.216;5.616;2023-03-04T01:30:04;102450.63;;;3.19;84.64
71805;BME280;59654;52.216;5.616;2023-03-04T01:30:36;102448.91;;;3.21;85.12
71805;BME280;59654;52.216;5.616;2023-03-04T01:31:07;102448.91;;;3.21;84.92
71805;BME280;59654;52.216;5.616;2023-03-04T01:31:38;102455.13;;;3.25;84.88
71805;BME280;59654;52.216;5.616;2023-03-04T01:32:08;102455.16;;;3.26;85.10
71805;BME280;59654;52.216;5.616;2023-03-04T01:32:39;102442.84;;;3.25;84.83
71805;BME280;59654;52.216;5.616;2023-03-04T01:33:10;102441.06;;;3.24;84.96
71805;BME280;59654;52.216;5.616;2023-03-04T01:33:41;102446.31;;;3.23;85.25
71805;BME280;59654;52.216;5.616;2023-03-04T01:34:13;102444.50;;;3.20;85.06
71805;BME280;59654;52.216;5.616;2023-03-04T01:34:44;102446.31;;;3.23;85.29
71805;BME280;59654;52.216;5.616;2023-03-04T01:35:15;102443.72;;;3.26;84.86
71805;BME280;59654;52.216;5.616;2023-03-04T01:35:46;102445.56;;;3.30;84.61
71805;BME280;59654;52.216;5.616;2023-03-04T01:36:17;102443.84;;;3.33;84.63
71805;BME280;59654;52.216;5.616;2023-03-04T01:36:47;102444.75;;;3.36;84.62
71805;BME280;59654;52.216;5.616;2023-03-04T01:37:18;102447.44;;;3.39;84.12
71805;BME280;59654;52.216;5.616;2023-03-04T01:37:50;102442.19;;;3.39;84.54
71805;BME280;59654;52.216;5.616;2023-03-04T01:38:21;102436.06;;;3.40;84.49
71805;BME280;59654;52.216;5.616;2023-03-04T01:38:52;102448.28;;;3.36;84.60
71805;BME280;59654;52.216;5.616;2023-03-04T01:39:23;102450.03;;;3.36;84.34
71805;BME280;59654;52.216;5.616;2023-03-04T01:39:55;102444.72;;;3.34;84.69
71805;BME280;59654;52.216;5.616;2023-03-04T01:40:26;102434.09;;;3.28;84.24
71805;BME280;59654;52.216;5.616;2023-03-04T01:40:58;102437.59;;;3.27;84.39
71805;BME280;59654;52.216;5.616;2023-03-04T01:41:29;102443.75;;;3.27;84.17
71805;BME280;59654;52.216;5.616;2023-03-04T01:42:01;102442.88;;;3.27;83.88
71805;BME280;59654;52.216;5.616;2023-03-04T01:42:34;102440.22;;;3.27;84.32
71805;BME280;59654;52.216;5.616;2023-03-04T01:43:05;102436.72;;;3.26;84.63
71805;BME280;59654;52.216;5.616;2023-03-04T01:43:37;102435.00;;;3.28;84.86
71805;BME280;59654;52.216;5.616;2023-03-04T01:44:09;102440.22;;;3.27;84.53
71805;BME280;59654;52.216;5.616;2023-03-04T01:44:41;102443.69;;;3.24;84.79
71805;BME280;59654;52.216;5.616;2023-03-04T01:45:16;102436.75;;;3.28;85.16
71805;BME280;59654;52.216;5.616;2023-03-04T01:45:49;102437.69;;;3.31;84.47
71805;BME280;59654;52.216;5.616;2023-03-04T01:46:21;102439.41;;;3.29;84.94
71805;BME280;59654;52.216;5.616;2023-03-04T01:46:53;102433.25;;;3.29;84.45
71805;BME280;59654;52.216;5.616;2023-03-04T01:47:28;102432.28;;;3.25;84.96
71805;BME280;59654;52.216;5.616;2023-03-04T01:48:00;102435.81;;;3.26;84.86
71805;BME280;59654;52.216;5.616;2023-03-04T01:48:36;102431.41;;;3.25;84.58
71805;BME280;59654;52.216;5.616;2023-03-04T01:49:11;102439.31;;;3.25;84.20
71805;BME280;59654;52.216;5.616;2023-03-04T01:49:47;102437.56;;;3.25;84.37
71805;BME280;59654;52.216;5.616;2023-03-04T01:50:30;102434.06;;;3.26;84.32
71805;BME280;59654;52.216;5.616;2023-03-04T01:51:05;102431.44;;;3.26;83.77
71805;BME280;59654;52.216;5.616;2023-03-04T01:51:36;102430.50;;;3.23;83.43
71805;BME280;59654;52.216;5.616;2023-03-04T01:52:11;102431.34;;;3.22;83.87
71805;BME280;59654;52.216;5.616;2023-03-04T01:52:43;102429.56;;;3.21;83.89
71805;BME280;59654;52.216;5.616;2023-03-04T01:53:19;102427.78;;;3.20;83.64
71805;BME280;59654;52.216;5.616;2023-03-04T01:53:56;102428.63;;;3.17;84.08
71805;BME280;59654;52.216;5.616;2023-03-04T01:55:13;102425.13;;;3.18;84.68
71805;BME280;59654;52.216;5.616;2023-03-04T01:57:32;102424.28;;;3.19;84.21
71805;BME280;59654;52.216;5.616;2023-03-04T01:59:31;102415.56;;;3.23;84.31
71805;BME280;59654;52.216;5.616;2023-03-04T02:01:15;102414.66;;;3.21;84.23
71805;BME280;59654;52.216;5.616;2023-03-04T02:02:40;102415.53;;;3.22;84.08
71805;BME280;59654;52.216;5.616;2023-03-04T02:04:00;102420.84;;;3.23;84.59
71805;BME280;59654;52.216;5.616;2023-03-04T02:05:07;102411.22;;;3.25;84.61
71805;BME280;59654;52.216;5.616;2023-03-04T02:06:36;102410.31;;;3.25;84.33
71805;BME280;59654;52.216;5.616;2023-03-04T02:08:39;102413.88;;;3.27;84.90
71805;BME280;59654;52.216;5.616;2023-03-04T02:10:16;102408.69;;;3.31;84.78
71805;BME280;59654;52.216;5.616;2023-03-04T02:10:50;102407.78;;;3.29;84.25
71805;BME280;59654;52.216;5.616;2023-03-04T02:11:21;102406.94;;;3.32;84.38
71805;BME280;59654;52.216;5.616;2023-03-04T02:11:58;102406.03;;;3.30;84.29
71805;BME280;59654;52.216;5.616;2023-03-04T02:12:29;102405.16;;;3.31;84.58
71805;BME280;59654;52.216;5.616;2023-03-04T02:13:01;102403.34;;;3.28;84.29
71805;BME280;59654;52.216;5.616;2023-03-04T02:13:32;102413.03;;;3.29;84.55
71805;BME280;59654;52.216;5.616;2023-03-04T02:14:06;102398.91;;;3.26;85.00
71805;BME280;59654;52.216;5.616;2023-03-04T02:14:38;102406.84;;;3.27;84.33
71805;BME280;59654;52.216;5.616;2023-03-04T02:15:10;102406.84;;;3.27;84.28
71805;BME280;59654;52.216;5.616;2023-03-04T02:15:42;102400.66;;;3.25;84.40
71805;BME280;59654;52.216;5.616;2023-03-04T02:16:14;102395.41;;;3.25;83.95
71805;BME280;59654;52.216;5.616;2023-03-04T02:16:46;102403.34;;;3.27;84.25
71805;BME280;59654;52.216;5.616;2023-03-04T02:17:26;102398.06;;;3.27;84.23
71805;BME280;59654;52.216;5.616;2023-03-04T02:17:58;102394.53;;;3.26;84.31
71805;BME280;59654;52.216;5.616;2023-03-04T02:18:29;102398.97;;;3.29;84.39
71805;BME280;59654;52.216;5.616;2023-03-04T02:19:01;102398.03;;;3.25;83.97
71805;BME280;59654;52.216;5.616;2023-03-04T02:21:56;102397.09;;;3.22;84.06
71805;BME280;59654;52.216;5.616;2023-03-04T02:22:27;102396.19;;;3.21;84.41
71805;BME280;59654;52.216;5.616;2023-03-04T02:23:17;102393.56;;;3.21;84.15
71805;BME280;59654;52.216;5.616;2023-03-04T02:24:49;102393.56;;;3.21;84.19
71805;BME280;59654;52.216;5.616;2023-03-04T02:25:35;102393.59;;;3.23;83.97
71805;BME280;59654;52.216;5.616;2023-03-04T02:26:30;102394.44;;;3.22;84.91
71805;BME280;59654;52.216;5.616;2023-03-04T02:27:01;102397.94;;;3.21;84.66
71805;BME280;59654;52.216;5.616;2023-03-04T02:27:32;102388.28;;;3.21;84.07
71805;BME280;59654;52.216;5.616;2023-03-04T02:28:03;102396.13;;;3.18;84.06
71805;BME280;59654;52.216;5.616;2023-03-04T02:28:34;102393.47;;;3.15;83.82
71805;BME280;59654;52.216;5.616;2023-03-04T02:29:05;102387.28;;;3.13;83.74
71805;BME280;59654;52.216;5.616;2023-03-04T02:29:36;102388.22;;;3.15;83.61
71805;BME280;59654;52.216;5.616;2023-03-04T02:30:10;102389.09;;;3.17;84.22
71805;BME280;59654;52.216;5.616;2023-03-04T02:30:42;102390.00;;;3.19;83.34
71805;BME280;59654;52.216;5.616;2023-03-04T02:32:08;102386.53;;;3.22;84.03
71805;BME280;59654;52.216;5.616;2023-03-04T02:32:40;102384.78;;;3.22;83.73
71805;BME280;59654;52.216;5.616;2023-03-04T02:33:18;102387.41;;;3.21;83.64
71805;BME280;59654;52.216;5.616;2023-03-04T02:33:51;102386.50;;;3.20;84.00
71805;BME280;59654;52.216;5.616;2023-03-04T02:34:30;102384.75;;;3.21;84.48
71805;BME280;59654;52.216;5.616;2023-03-04T02:35:03;102380.34;;;3.20;84.11
71805;BME280;59654;52.216;5.616;2023-03-04T02:35:35;102386.47;;;3.19;84.80
71805;BME280;59654;52.216;5.616;2023-03-04T02:36:06;102381.25;;;3.20;84.71
71805;BME280;59654;52.216;5.616;2023-03-04T02:36:38;102390.91;;;3.20;84.01
71805;BME280;59654;52.216;5.616;2023-03-04T02:37:10;102380.38;;;3.21;84.43
71805;BME280;59654;52.216;5.616;2023-03-04T02:37:41;102384.78;;;3.22;84.17
71805;BME280;59654;52.216;5.616;2023-03-04T02:38:12;102381.28;;;3.23;84.12
71805;BME280;59654;52.216;5.616;2023-03-04T02:38:43;102376.84;;;3.19;84.32
71805;BME280;59654;52.216;5.616;2023-03-04T02:39:34;102378.56;;;3.19;83.71
71805;BME280;59654;52.216;5.616;2023-03-04T02:40:16;102379.44;;;3.18;84.13
71805;BME280;59654;52.216;5.616;2023-03-04T02:40:59;102377.72;;;3.20;84.45
71805;BME280;59654;52.216;5.616;2023-03-04T02:41:30;102377.72;;;3.20;84.52
71805;BME280;59654;52.216;5.616;2023-03-04T02:42:03;102381.22;;;3.19;84.10
71805;BME280;59654;52.216;5.616;2023-03-04T02:42:35;102377.66;;;3.15;84.34
71805;BME280;59654;52.216;5.616;2023-03-04T02:43:10;102377.69;;;3.18;84.59
71805;BME280;59654;52.216;5.616;2023-03-04T02:43:43;102379.47;;;3.19;84.67
71805;BME280;59654;52.216;5.616;2023-03-04T02:44:59;102376.78;;;3.15;84.69
71805;BME280;59654;52.216;5.616;2023-03-04T02:45:43;102382.88;;;3.12;84.87
71805;BME280;59654;52.216;5.616;2023-03-04T02:46:16;102376.75;;;3.13;84.86
71805;BME280;59654;52.216;5.616;2023-03-04T02:46:49;102374.97;;;3.12;85.03
71805;BME280;59654;52.216;5.616;2023-03-04T02:47:20;102381.16;;;3.14;85.33
71805;BME280;59654;52.216;5.616;2023-03-04T02:47:52;102378.50;;;3.13;84.95
71805;BME280;59654;52.216;5.616;2023-03-04T02:48:23;102377.59;;;3.12;85.26
71805;BME280;59654;52.216;5.616;2023-03-04T02:48:54;102382.84;;;3.11;85.56
71805;BME280;59654;52.216;5.616;2023-03-04T02:49:27;102382.00;;;3.12;85.25
71805;BME280;59654;52.216;5.616;2023-03-04T02:50:00;102375.84;;;3.13;85.81
71805;BME280;59654;52.216;5.616;2023-03-04T02:50:35;102375.88;;;3.14;84.78
71805;BME280;59654;52.216;5.616;2023-03-04T02:51:09;102379.31;;;3.10;85.02
71805;BME280;59654;52.216;5.616;2023-03-04T02:51:39;102367.91;;;3.10;85.24
71805;BME280;59654;52.216;5.616;2023-03-04T02:52:17;102378.41;;;3.08;85.49
71805;BME280;59654;52.216;5.616;2023-03-04T02:52:50;102374.88;;;3.08;85.61
71805;BME280;59654;52.216;5.616;2023-03-04T02:53:22;102375.75;;;3.07;85.84
71805;BME280;59654;52.216;5.616;2023-03-04T02:53:55;102382.72;;;3.05;85.23
71805;BME280;59654;52.216;5.616;2023-03-04T02:54:28;102374.84;;;3.06;85.06
71805;BME280;59654;52.216;5.616;2023-03-04T02:54:59;102375.72;;;3.05;85.79
71805;BME280;59654;52.216;5.616;2023-03-04T02:55:30;102370.41;;;3.04;85.62
71805;BME280;59654;52.216;5.616;2023-03-04T02:56:01;102380.09;;;3.05;85.89
71805;BME280;59654;52.216;5.616;2023-03-04T02:56:36;102374.81;;;3.05;85.39
71805;BME280;59654;52.216;5.616;2023-03-04T02:57:10;102382.72;;;3.05;85.89
71805;BME280;59654;52.216;5.616;2023-03-04T02:57:44;102373.94;;;3.04;85.59
71805;BME280;59654;52.216;5.616;2023-03-04T02:58:15;102369.53;;;3.03;85.62
71805;BME280;59654;52.216;5.616;2023-03-04T02:58:46;102376.53;;;3.03;85.36
71805;BME280;59654;52.216;5.616;2023-03-04T02:59:19;102373.03;;;3.02;85.93
71805;BME280;59654;52.216;5.616;2023-03-04T02:59:51;102371.28;;;3.03;86.04
71805;BME280;59654;52.216;5.616;2023-03-04T03:00:26;102378.28;;;3.02;85.92
71805;BME280;59654;52.216;5.616;2023-03-04T03:00:58;102372.13;;;3.00;86.21
71805;BME280;59654;52.216;5.616;2023-03-04T03:01:31;102369.50;;;3.02;86.21
71805;BME280;59654;52.216;5.616;2023-03-04T03:02:02;102366.88;;;3.00;85.97
71805;BME280;59654;52.216;5.616;2023-03-04T03:02:33;102373.88;;;3.01;85.77
71805;BME280;59654;52.216;5.616;2023-03-04T03:03:04;102373.03;;;3.01;85.61
71805;BME280;59654;52.216;5.616;2023-03-04T03:03:39;102372.13;;;3.00;86.53
71805;BME280;59654;52.216;5.616;2023-03-04T03:04:10;102375.66;;;3.02;86.50
71805;BME280;59654;52.216;5.616;2023-03-04T03:04:42;102370.41;;;3.04;86.10
71805;BME280;59654;52.216;5.616;2023-03-04T03:05:17;102367.78;;;3.04;86.52
71805;BME280;59654;52.216;5.616;2023-03-04T03:05:48;102366.06;;;3.06;85.84